sensor_id;sensor_type;location;lat;lon;timestamp;P1;durP1;ratioP1;P2;durP2;ratioP2
55254;SDS011;41118;44.634;11.182;2023-12-20T00:00:08;12.38;;;3.10;;
55254;SDS011;41118;44.634;11.182;2023-12-20T00:02:34;8.35;;;1.83;;
55254;SDS011;41118;44.634;11.182;2023-12-20T00:05:00;9.07;;;2.35;;
55254;SDS011;41118;44.634;11.182;2023-12-20T00:07:26;13.60;;;1.60;;
55254;SDS011;41118;44.634;11.182;2023-12-20T00:09:52;5.88;;;1.20;;
55254;SDS011;41118;44.634;11.182;2023-12-20T00:12:19;14.23;;;2.22;;
55254;SDS011;41118;44.634;11.182;2023-12-20T00:14:45;4.18;;;1.08;;
55254;SDS011;41118;44.634;11.182;2023-12-20T00:17:11;9.38;;;2.15;;
55254;SDS011;41118;44.634;11.182;2023-12-20T00:19:37;6.07;;;1.00;;
55254;SDS011;41118;44.634;11.182;2023-12-20T00:22:03;8.60;;;1.75;;
55254;SDS011;41118;44.634;11.182;2023-12-20T00:24:29;11.20;;;2.38;;
55254;SDS011;41118;44.634;11.182;2023-12-20T00:26:56;7.45;;;1.35;;
55254;SDS011;41118;44.634;11.182;2023-12-20T00:29:22;10.98;;;1.95;;
55254;SDS011;41118;44.634;11.182;2023-12-20T00:31:48;6.63;;;0.95;;
55254;SDS011;41118;44.634;11.182;2023-12-20T00:34:14;9.45;;;1.77;;
55254;SDS011;41118;44.634;11.182;2023-12-20T00:36:40;6.53;;;1.30;;
55254;SDS011;41118;44.634;11.182;2023-12-20T00:39:06;9.27;;;0.98;;
55254;SDS011;41118;44.634;11.182;2023-12-20T00:41:32;6.07;;;1.60;;
55254;SDS011;41118;44.634;11.182;2023-12-20T00:43:58;9.27;;;1.13;;
55254;SDS011;41118;44.634;11.182;2023-12-20T00:46:25;5.25;;;1.08;;
55254;SDS011;41118;44.634;11.182;2023-12-20T00:48:51;7.38;;;2.10;;
55254;SDS011;41118;44.634;11.182;2023-12-20T00:51:18;3.90;;;1.15;;
55254;SDS011;41118;44.634;11.182;2023-12-20T00:53:44;7.90;;;2.88;;
55254;SDS011;41118;44.634;11.182;2023-12-20T00:56:11;5.53;;;1.20;;
55254;SDS011;41118;44.634;11.182;2023-12-20T00:58:37;8.30;;;1.67;;
55254;SDS011;41118;44.634;11.182;2023-12-20T01:01:03;10.98;;;2.40;;
55254;SDS011;41118;44.634;11.182;2023-12-20T01:03:29;5.93;;;1.73;;
55254;SDS011;41118;44.634;11.182;2023-12-20T01:05:55;3.25;;;0.80;;
55254;SDS011;41118;44.634;11.182;2023-12-20T01:08:22;8.57;;;1.55;;
55254;SDS011;41118;44.634;11.182;2023-12-20T01:10:48;4.97;;;1.80;;
55254;SDS011;41118;44.634;11.182;2023-12-20T01:13:15;5.03;;;1.02;;
55254;SDS011;41118;44.634;11.182;2023-12-20T01:15:41;5.65;;;1.80;;
55254;SDS011;41118;44.634;11.182;2023-12-20T01:18:07;6.65;;;3.22;;
55254;SDS011;41118;44.634;11.182;2023-12-20T01:20:33;6.03;;;1.67;;
55254;SDS011;41118;44.634;11.182;2023-12-20T01:22:59;7.00;;;2.10;;
55254;SDS011;41118;44.634;11.182;2023-12-20T01:25:25;4.00;;;1.25;;
55254;SDS011;41118;44.634;11.182;2023-12-20T01:27:52;3.55;;;1.00;;
55254;SDS011;41118;44.634;11.182;2023-12-20T01:30:18;8.63;;;1.25;;
55254;SDS011;41118;44.634;11.182;2023-12-20T01:32:44;6.05;;;1.40;;
55254;SDS011;41118;44.634;11.182;2023-12-20T01:35:10;3.85;;;0.70;;
55254;SDS011;41118;44.634;11.182;2023-12-20T01:37:37;11.63;;;0.95;;
55254;SDS011;41118;44.634;11.182;2023-12-20T01:40:04;5.38;;;1.02;;
55254;SDS011;41118;44.634;11.182;2023-12-20T01:42:30;5.75;;;1.60;;
55254;SDS011;41118;44.634;11.182;2023-12-20T01:44:57;5.47;;;1.15;;
55254;SDS011;41118;44.634;11.182;2023-12-20T01:47:23;8.45;;;1.30;;
55254;SDS011;41118;44.634;11.182;2023-12-20T01:49:49;8.63;;;1.67;;
55254;SDS011;41118;44.634;11.182;2023-12-20T01:52:16;8.48;;;1.73;;
55254;SDS011;41118;44.634;11.182;2023-12-20T01:54:42;4.32;;;1.48;;
55254;SDS011;41118;44.634;11.182;2023-12-20T01:57:09;5.47;;;2.05;;
55254;SDS011;41118;44.634;11.182;2023-12-20T01:59:35;5.32;;;0.70;;
55254;SDS011;41118;44.634;11.182;2023-12-20T02:02:02;7.30;;;1.52;;
55254;SDS011;41118;44.634;11.182;2023-12-20T02:04:29;2.38;;;0.70;;
55254;SDS011;41118;44.634;11.182;2023-12-20T02:06:55;3.75;;;1.60;;
55254;SDS011;41118;44.634;11.182;2023-12-20T02:09:22;3.17;;;0.88;;
55254;SDS011;41118;44.634;11.182;2023-12-20T02:11:48;3.47;;;1.70;;
55254;SDS011;41118;44.634;11.182;2023-12-20T02:14:14;4.20;;;0.73;;
55254;SDS011;41118;44.634;11.182;2023-12-20T02:16:40;6.78;;;1.77;;
55254;SDS011;41118;44.634;11.182;2023-12-20T02:19:08;3.45;;;0.60;;
55254;SDS011;41118;44.634;11.182;2023-12-20T02:21:38;3.75;;;0.82;;
55254;SDS011;41118;44.634;11.182;2023-12-20T02:24:05;10.32;;;0.93;;
55254;SDS011;41118;44.634;11.182;2023-12-20T02:26:34;5.38;;;2.45;;
55254;SDS011;41118;44.634;11.182;2023-12-20T02:29:00;4.20;;;1.25;;
55254;SDS011;41118;44.634;11.182;2023-12-20T02:31:26;5.90;;;1.73;;
55254;SDS011;41118;44.634;11.182;2023-12-20T02:33:53;4.18;;;1.20;;
55254;SDS011;41118;44.634;11.182;2023-12-20T02:36:19;4.55;;;0.80;;
55254;SDS011;41118;44.634;11.182;2023-12-20T02:38:45;5.72;;;1.40;;
55254;SDS011;41118;44.634;11.182;2023-12-20T02:41:11;4.15;;;0.75;;
55254;SDS011;41118;44.634;11.182;2023-12-20T02:43:38;5.50;;;1.63;;
55254;SDS011;41118;44.634;11.182;2023-12-20T02:46:04;4.22;;;0.95;;
55254;SDS011;41118;44.634;11.182;2023-12-20T02:48:31;3.83;;;1.05;;
55254;SDS011;41118;44.634;11.182;2023-12-20T02:50:57;5.28;;;1.30;;
55254;SDS011;41118;44.634;11.182;2023-12-20T02:53:23;5.72;;;1.85;;
55254;SDS011;41118;44.634;11.182;2023-12-20T02:55:49;6.63;;;1.73;;
55254;SDS011;41118;44.634;11.182;2023-12-20T02:58:15;4.75;;;0.98;;
55254;SDS011;41118;44.634;11.182;2023-12-20T03:00:42;3.20;;;1.15;;
55254;SDS011;41118;44.634;11.182;2023-12-20T03:03:08;4.78;;;0.73;;
55254;SDS011;41118;44.634;11.182;2023-12-20T03:05:34;5.95;;;1.08;;
55254;SDS011;41118;44.634;11.182;2023-12-20T03:08:00;6.68;;;1.13;;
55254;SDS011;41118;44.634;11.182;2023-12-20T03:10:27;3.45;;;0.77;;
55254;SDS011;41118;44.634;11.182;2023-12-20T03:12:53;4.80;;;1.13;;
55254;SDS011;41118;44.634;11.182;2023-12-20T03:15:19;2.42;;;1.10;;
55254;SDS011;41118;44.634;11.182;2023-12-20T03:17:46;6.93;;;1.23;;
55254;SDS011;41118;44.634;11.182;2023-12-20T03:20:12;8.38;;;1.77;;
55254;SDS011;41118;44.634;11.182;2023-12-20T03:22:38;6.53;;;1.60;;
55254;SDS011;41118;44.634;11.182;2023-12-20T03:25:04;11.32;;;1.88;;
55254;SDS011;41118;44.634;11.182;2023-12-20T03:27:30;7.32;;;2.65;;
55254;SDS011;41118;44.634;11.182;2023-12-20T03:29:56;4.22;;;0.90;;
55254;SDS011;41118;44.634;11.182;2023-12-20T03:32:22;4.65;;;1.13;;
55254;SDS011;41118;44.634;11.182;2023-12-20T03:34:48;5.43;;;1.10;;
55254;SDS011;41118;44.634;11.182;2023-12-20T03:37:14;4.22;;;1.55;;
55254;SDS011;41118;44.634;11.182;2023-12-20T03:39:40;5.18;;;1.00;;
55254;SDS011;41118;44.634;11.182;2023-12-20T03:42:06;2.88;;;0.80;;
55254;SDS011;41118;44.634;11.182;2023-12-20T03:44:32;1.55;;;0.60;;
55254;SDS011;41118;44.634;11.182;2023-12-20T03:46:59;3.05;;;0.70;;
55254;SDS011;41118;44.634;11.182;2023-12-20T03:49:25;6.68;;;1.10;;
55254;SDS011;41118;44.634;11.182;2023-12-20T03:51:51;2.67;;;0.70;;
55254;SDS011;41118;44.634;11.182;2023-12-20T03:54:17;7.82;;;0.80;;
55254;SDS011;41118;44.634;11.182;2023-12-20T03:56:44;4.40;;;1.30;;
55254;SDS011;41118;44.634;11.182;2023-12-20T03:59:10;2.38;;;0.60;;
55254;SDS011;41118;44.634;11.182;2023-12-20T04:01:36;3.30;;;0.40;;
55254;SDS011;41118;44.634;11.182;2023-12-20T04:04:02;3.30;;;0.63;;
55254;SDS011;41118;44.634;11.182;2023-12-20T04:06:28;2.47;;;0.50;;
55254;SDS011;41118;44.634;11.182;2023-12-20T04:08:55;2.75;;;0.47;;
55254;SDS011;41118;44.634;11.182;2023-12-20T04:11:21;3.30;;;0.88;;
55254;SDS011;41118;44.634;11.182;2023-12-20T04:13:47;4.50;;;0.95;;
55254;SDS011;41118;44.634;11.182;2023-12-20T04:16:14;5.95;;;1.10;;
55254;SDS011;41118;44.634;11.182;2023-12-20T04:18:40;3.65;;;1.05;;
55254;SDS011;41118;44.634;11.182;2023-12-20T04:21:06;3.35;;;1.25;;
55254;SDS011;41118;44.634;11.182;2023-12-20T04:23:32;5.22;;;1.17;;
55254;SDS011;41118;44.634;11.182;2023-12-20T04:25:58;7.80;;;1.02;;
55254;SDS011;41118;44.634;11.182;2023-12-20T04:28:25;6.20;;;0.68;;
55254;SDS011;41118;44.634;11.182;2023-12-20T04:30:51;4.25;;;0.57;;
55254;SDS011;41118;44.634;11.182;2023-12-20T04:33:17;4.18;;;0.75;;
55254;SDS011;41118;44.634;11.182;2023-12-20T04:35:43;3.65;;;0.85;;
55254;SDS011;41118;44.634;11.182;2023-12-20T04:38:11;4.72;;;0.73;;
55254;SDS011;41118;44.634;11.182;2023-12-20T04:40:37;4.38;;;1.20;;
55254;SDS011;41118;44.634;11.182;2023-12-20T04:43:05;4.68;;;0.47;;
55254;SDS011;41118;44.634;11.182;2023-12-20T04:45:31;3.13;;;0.60;;
55254;SDS011;41118;44.634;11.182;2023-12-20T04:47:58;9.65;;;1.02;;
55254;SDS011;41118;44.634;11.182;2023-12-20T04:50:24;4.65;;;0.68;;
55254;SDS011;41118;44.634;11.182;2023-12-20T04:52:51;3.78;;;0.68;;
55254;SDS011;41118;44.634;11.182;2023-12-20T04:55:17;3.47;;;0.70;;
55254;SDS011;41118;44.634;11.182;2023-12-20T04:57:43;5.65;;;0.73;;
55254;SDS011;41118;44.634;11.182;2023-12-20T05:00:09;3.55;;;0.93;;
55254;SDS011;41118;44.634;11.182;2023-12-20T05:02:36;4.40;;;0.93;;
55254;SDS011;41118;44.634;11.182;2023-12-20T05:05:02;4.82;;;1.30;;
55254;SDS011;41118;44.634;11.182;2023-12-20T05:07:29;2.72;;;0.50;;
55254;SDS011;41118;44.634;11.182;2023-12-20T05:09:55;4.18;;;0.50;;
55254;SDS011;41118;44.634;11.182;2023-12-20T05:12:21;3.53;;;0.60;;
55254;SDS011;41118;44.634;11.182;2023-12-20T05:14:47;5.03;;;0.88;;
55254;SDS011;41118;44.634;11.182;2023-12-20T05:17:13;2.75;;;1.17;;
55254;SDS011;41118;44.634;11.182;2023-12-20T05:19:39;4.60;;;0.93;;
55254;SDS011;41118;44.634;11.182;2023-12-20T05:22:05;2.25;;;0.40;;
55254;SDS011;41118;44.634;11.182;2023-12-20T05:24:31;3.53;;;0.32;;
55254;SDS011;41118;44.634;11.182;2023-12-20T05:26:57;3.05;;;0.77;;
55254;SDS011;41118;44.634;11.182;2023-12-20T05:29:23;2.22;;;0.30;;
55254;SDS011;41118;44.634;11.182;2023-12-20T05:31:49;1.27;;;0.40;;
55254;SDS011;41118;44.634;11.182;2023-12-20T05:34:15;2.60;;;0.38;;
55254;SDS011;41118;44.634;11.182;2023-12-20T05:36:42;2.33;;;0.70;;
55254;SDS011;41118;44.634;11.182;2023-12-20T05:39:08;4.03;;;0.40;;
55254;SDS011;41118;44.634;11.182;2023-12-20T05:41:34;2.42;;;0.50;;
55254;SDS011;41118;44.634;11.182;2023-12-20T05:44:00;3.78;;;0.40;;
55254;SDS011;41118;44.634;11.182;2023-12-20T05:46:26;5.75;;;0.40;;
55254;SDS011;41118;44.634;11.182;2023-12-20T05:48:52;3.35;;;0.50;;
55254;SDS011;41118;44.634;11.182;2023-12-20T05:51:18;3.88;;;0.40;;
55254;SDS011;41118;44.634;11.182;2023-12-20T05:53:45;1.90;;;0.45;;
55254;SDS011;41118;44.634;11.182;2023-12-20T05:56:11;3.78;;;0.68;;
55254;SDS011;41118;44.634;11.182;2023-12-20T05:58:38;8.30;;;0.70;;
55254;SDS011;41118;44.634;11.182;2023-12-20T06:01:05;5.00;;;0.60;;
55254;SDS011;41118;44.634;11.182;2023-12-20T06:03:32;3.15;;;0.82;;
55254;SDS011;41118;44.634;11.182;2023-12-20T06:05:59;4.80;;;0.80;;
55254;SDS011;41118;44.634;11.182;2023-12-20T06:08:25;7.72;;;0.50;;
55254;SDS011;41118;44.634;11.182;2023-12-20T06:10:51;2.58;;;0.77;;
55254;SDS011;41118;44.634;11.182;2023-12-20T06:13:17;13.50;;;0.77;;
55254;SDS011;41118;44.634;11.182;2023-12-20T06:15:43;7.63;;;1.23;;
55254;SDS011;41118;44.634;11.182;2023-12-20T06:18:09;15.15;;;1.70;;
55254;SDS011;41118;44.634;11.182;2023-12-20T06:20:36;16.75;;;0.93;;
55254;SDS011;41118;44.634;11.182;2023-12-20T06:23:02;7.22;;;1.20;;
55254;SDS011;41118;44.634;11.182;2023-12-20T06:25:28;7.93;;;0.80;;
55254;SDS011;41118;44.634;11.182;2023-12-20T06:27:54;8.55;;;0.70;;
55254;SDS011;41118;44.634;11.182;2023-12-20T06:30:20;4.82;;;1.27;;
55254;SDS011;41118;44.634;11.182;2023-12-20T06:32:46;4.00;;;0.70;;
55254;SDS011;41118;44.634;11.182;2023-12-20T06:35:12;5.18;;;0.60;;
55254;SDS011;41118;44.634;11.182;2023-12-20T06:37:38;4.93;;;0.75;;
55254;SDS011;41118;44.634;11.182;2023-12-20T06:40:07;2.00;;;0.55;;
55254;SDS011;41118;44.634;11.182;2023-12-20T06:42:33;3.22;;;1.13;;
55254;SDS011;41118;44.634;11.182;2023-12-20T06:44:59;2.72;;;0.70;;
55254;SDS011;41118;44.634;11.182;2023-12-20T06:47:26;4.03;;;0.70;;
55254;SDS011;41118;44.634;11.182;2023-12-20T06:49:52;12.32;;;1.52;;
55254;SDS011;41118;44.634;11.182;2023-12-20T06:52:18;4.78;;;1.10;;
55254;SDS011;41118;44.634;11.182;2023-12-20T06:54:44;5.85;;;1.08;;
55254;SDS011;41118;44.634;11.182;2023-12-20T06:57:10;5.88;;;0.80;;
55254;SDS011;41118;44.634;11.182;2023-12-20T06:59:40;6.63;;;0.52;;
55254;SDS011;41118;44.634;11.182;2023-12-20T07:02:06;5.25;;;0.70;;
55254;SDS011;41118;44.634;11.182;2023-12-20T07:04:32;3.15;;;0.55;;
55254;SDS011;41118;44.634;11.182;2023-12-20T07:06:58;4.43;;;1.02;;
55254;SDS011;41118;44.634;11.182;2023-12-20T07:09:28;5.18;;;0.50;;
55254;SDS011;41118;44.634;11.182;2023-12-20T07:11:54;3.63;;;0.60;;
55254;SDS011;41118;44.634;11.182;2023-12-20T07:14:20;6.75;;;0.98;;
55254;SDS011;41118;44.634;11.182;2023-12-20T07:16:46;1.42;;;0.30;;
55254;SDS011;41118;44.634;11.182;2023-12-20T07:19:12;3.75;;;0.30;;
55254;SDS011;41118;44.634;11.182;2023-12-20T07:21:39;7.63;;;0.73;;
55254;SDS011;41118;44.634;11.182;2023-12-20T07:24:05;2.47;;;0.40;;
55254;SDS011;41118;44.634;11.182;2023-12-20T07:26:31;7.43;;;0.52;;
55254;SDS011;41118;44.634;11.182;2023-12-20T07:28:57;1.58;;;0.45;;
55254;SDS011;41118;44.634;11.182;2023-12-20T07:31:23;3.92;;;0.40;;
55254;SDS011;41118;44.634;11.182;2023-12-20T07:33:49;3.55;;;0.35;;
55254;SDS011;41118;44.634;11.182;2023-12-20T07:36:16;3.55;;;0.30;;
55254;SDS011;41118;44.634;11.182;2023-12-20T07:38:42;1.58;;;0.50;;
55254;SDS011;41118;44.634;11.182;2023-12-20T07:41:12;5.70;;;0.30;;
55254;SDS011;41118;44.634;11.182;2023-12-20T07:43:38;3.58;;;0.88;;
55254;SDS011;41118;44.634;11.182;2023-12-20T07:46:05;1.88;;;0.50;;
55254;SDS011;41118;44.634;11.182;2023-12-20T07:48:31;1.40;;;0.32;;
55254;SDS011;41118;44.634;11.182;2023-12-20T07:50:57;2.53;;;0.50;;
55254;SDS011;41118;44.634;11.182;2023-12-20T07:53:23;2.13;;;0.40;;
55254;SDS011;41118;44.634;11.182;2023-12-20T07:55:49;6.45;;;0.50;;
55254;SDS011;41118;44.634;11.182;2023-12-20T07:58:17;3.65;;;0.60;;
55254;SDS011;41118;44.634;11.182;2023-12-20T08:00:43;3.22;;;0.95;;
55254;SDS011;41118;44.634;11.182;2023-12-20T08:03:10;3.40;;;0.50;;
55254;SDS011;41118;44.634;11.182;2023-12-20T08:05:36;3.97;;;0.68;;
55254;SDS011;41118;44.634;11.182;2023-12-20T08:08:03;3.53;;;0.70;;
55254;SDS011;41118;44.634;11.182;2023-12-20T08:10:30;2.70;;;0.77;;
55254;SDS011;41118;44.634;11.182;2023-12-20T08:12:56;5.25;;;0.80;;
55254;SDS011;41118;44.634;11.182;2023-12-20T08:15:22;2.00;;;0.60;;
55254;SDS011;41118;44.634;11.182;2023-12-20T08:17:48;2.72;;;0.60;;
55254;SDS011;41118;44.634;11.182;2023-12-20T08:20:18;4.68;;;0.70;;
55254;SDS011;41118;44.634;11.182;2023-12-20T08:22:44;3.50;;;1.02;;
55254;SDS011;41118;44.634;11.182;2023-12-20T08:25:10;2.95;;;1.00;;
55254;SDS011;41118;44.634;11.182;2023-12-20T08:27:39;4.68;;;0.80;;
55254;SDS011;41118;44.634;11.182;2023-12-20T08:30:07;8.98;;;1.17;;
55254;SDS011;41118;44.634;11.182;2023-12-20T08:32:34;7.40;;;0.75;;
55254;SDS011;41118;44.634;11.182;2023-12-20T08:35:00;5.28;;;1.10;;
55254;SDS011;41118;44.634;11.182;2023-12-20T08:37:26;7.63;;;0.80;;
55254;SDS011;41118;44.634;11.182;2023-12-20T08:39:52;13.52;;;0.80;;
55254;SDS011;41118;44.634;11.182;2023-12-20T08:42:19;5.55;;;0.75;;
55254;SDS011;41118;44.634;11.182;2023-12-20T08:44:45;7.10;;;0.60;;
55254;SDS011;41118;44.634;11.182;2023-12-20T08:47:11;3.13;;;0.73;;
55254;SDS011;41118;44.634;11.182;2023-12-20T08:49:40;7.07;;;0.93;;
55254;SDS011;41118;44.634;11.182;2023-12-20T08:52:07;5.65;;;1.02;;
55254;SDS011;41118;44.634;11.182;2023-12-20T08:54:33;5.78;;;0.80;;
55254;SDS011;41118;44.634;11.182;2023-12-20T08:56:59;3.85;;;0.70;;
55254;SDS011;41118;44.634;11.182;2023-12-20T08:59:25;5.05;;;0.88;;
55254;SDS011;41118;44.634;11.182;2023-12-20T09:01:51;12.35;;;1.55;;
55254;SDS011;41118;44.634;11.182;2023-12-20T09:04:19;3.28;;;0.50;;
55254;SDS011;41118;44.634;11.182;2023-12-20T09:06:45;4.90;;;1.05;;
55254;SDS011;41118;44.634;11.182;2023-12-20T09:09:11;17.02;;;2.42;;
55254;SDS011;41118;44.634;11.182;2023-12-20T09:11:39;5.88;;;0.85;;
55254;SDS011;41118;44.634;11.182;2023-12-20T09:14:05;4.72;;;1.25;;
55254;SDS011;41118;44.634;11.182;2023-12-20T09:16:31;5.13;;;1.25;;
55254;SDS011;41118;44.634;11.182;2023-12-20T09:18:57;6.78;;;1.83;;
55254;SDS011;41118;44.634;11.182;2023-12-20T09:21:24;9.25;;;2.22;;
55254;SDS011;41118;44.634;11.182;2023-12-20T09:23:50;10.20;;;2.17;;
55254;SDS011;41118;44.634;11.182;2023-12-20T09:26:17;5.40;;;2.08;;
55254;SDS011;41118;44.634;11.182;2023-12-20T09:28:43;5.72;;;1.63;;
55254;SDS011;41118;44.634;11.182;2023-12-20T09:31:09;11.85;;;2.70;;
55254;SDS011;41118;44.634;11.182;2023-12-20T09:33:36;10.23;;;1.98;;
55254;SDS011;41118;44.634;11.182;2023-12-20T09:36:02;7.65;;;2.58;;
55254;SDS011;41118;44.634;11.182;2023-12-20T09:38:28;8.07;;;3.30;;
55254;SDS011;41118;44.634;11.182;2023-12-20T09:40:54;14.88;;;2.67;;
55254;SDS011;41118;44.634;11.182;2023-12-20T09:43:21;4.50;;;1.55;;
55254;SDS011;41118;44.634;11.182;2023-12-20T09:45:51;5.13;;;1.33;;
55254;SDS011;41118;44.634;11.182;2023-12-20T09:48:18;9.98;;;1.10;;
55254;SDS011;41118;44.634;11.182;2023-12-20T09:50:45;9.73;;;0.93;;
55254;SDS011;41118;44.634;11.182;2023-12-20T09:53:14;6.85;;;1.75;;
55254;SDS011;41118;44.634;11.182;2023-12-20T09:55:41;9.35;;;1.77;;
55254;SDS011;41118;44.634;11.182;2023-12-20T09:58:07;7.25;;;1.45;;
55254;SDS011;41118;44.634;11.182;2023-12-20T10:00:36;3.97;;;1.60;;
55254;SDS011;41118;44.634;11.182;2023-12-20T10:03:02;6.90;;;2.88;;
55254;SDS011;41118;44.634;11.182;2023-12-20T10:05:30;8.90;;;2.85;;
55254;SDS011;41118;44.634;11.182;2023-12-20T10:07:56;6.10;;;1.88;;
55254;SDS011;41118;44.634;11.182;2023-12-20T10:10:23;7.15;;;1.65;;
55254;SDS011;41118;44.634;11.182;2023-12-20T10:13:05;6.30;;;1.90;;
55254;SDS011;41118;44.634;11.182;2023-12-20T10:15:34;5.30;;;0.80;;
55254;SDS011;41118;44.634;11.182;2023-12-20T10:18:01;6.78;;;2.05;;
55254;SDS011;41118;44.634;11.182;2023-12-20T10:20:28;3.15;;;1.23;;
55254;SDS011;41118;44.634;11.182;2023-12-20T10:22:55;8.25;;;1.17;;
55254;SDS011;41118;44.634;11.182;2023-12-20T10:25:21;12.65;;;2.08;;
55254;SDS011;41118;44.634;11.182;2023-12-20T10:27:47;6.22;;;2.25;;
55254;SDS011;41118;44.634;11.182;2023-12-20T10:30:13;7.05;;;1.98;;
55254;SDS011;41118;44.634;11.182;2023-12-20T10:32:40;7.13;;;1.40;;
55254;SDS011;41118;44.634;11.182;2023-12-20T10:35:06;6.72;;;1.48;;
55254;SDS011;41118;44.634;11.182;2023-12-20T10:37:36;9.82;;;2.95;;
55254;SDS011;41118;44.634;11.182;2023-12-20T10:40:03;9.70;;;1.45;;
55254;SDS011;41118;44.634;11.182;2023-12-20T10:42:30;6.82;;;2.78;;
55254;SDS011;41118;44.634;11.182;2023-12-20T10:44:59;5.53;;;2.30;;
55254;SDS011;41118;44.634;11.182;2023-12-20T10:47:25;8.85;;;2.25;;
55254;SDS011;41118;44.634;11.182;2023-12-20T10:49:52;6.05;;;1.67;;
55254;SDS011;41118;44.634;11.182;2023-12-20T10:52:18;12.00;;;2.25;;
55254;SDS011;41118;44.634;11.182;2023-12-20T10:54:45;12.68;;;2.80;;
55254;SDS011;41118;44.634;11.182;2023-12-20T10:57:12;6.30;;;2.90;;
55254;SDS011;41118;44.634;11.182;2023-12-20T10:59:39;5.50;;;1.23;;
55254;SDS011;41118;44.634;11.182;2023-12-20T11:02:05;6.20;;;1.67;;
55254;SDS011;41118;44.634;11.182;2023-12-20T11:04:46;8.05;;;3.08;;
55254;SDS011;41118;44.634;11.182;2023-12-20T11:07:21;5.72;;;1.25;;
55254;SDS011;41118;44.634;11.182;2023-12-20T11:09:55;8.32;;;2.78;;
55254;SDS011;41118;44.634;11.182;2023-12-20T11:12:28;5.13;;;1.25;;
55254;SDS011;41118;44.634;11.182;2023-12-20T11:14:57;9.02;;;1.60;;
55254;SDS011;41118;44.634;11.182;2023-12-20T11:17:29;7.60;;;1.92;;
55254;SDS011;41118;44.634;11.182;2023-12-20T11:22:21;7.97;;;2.38;;
55254;SDS011;41118;44.634;11.182;2023-12-20T11:24:47;8.60;;;1.92;;
55254;SDS011;41118;44.634;11.182;2023-12-20T11:27:14;7.43;;;2.50;;
55254;SDS011;41118;44.634;11.182;2023-12-20T11:29:41;8.07;;;2.35;;
55254;SDS011;41118;44.634;11.182;2023-12-20T11:37:29;5.05;;;0.88;;
55254;SDS011;41118;44.634;11.182;2023-12-20T11:40:02;8.23;;;1.63;;
55254;SDS011;41118;44.634;11.182;2023-12-20T11:42:38;6.60;;;1.38;;
55254;SDS011;41118;44.634;11.182;2023-12-20T11:45:05;10.98;;;1.98;;
55254;SDS011;41118;44.634;11.182;2023-12-20T11:47:31;2.78;;;1.25;;
55254;SDS011;41118;44.634;11.182;2023-12-20T11:49:57;6.30;;;2.30;;
55254;SDS011;41118;44.634;11.182;2023-12-20T11:52:25;9.68;;;2.42;;
55254;SDS011;41118;44.634;11.182;2023-12-20T11:54:52;7.63;;;1.85;;
55254;SDS011;41118;44.634;11.182;2023-12-20T11:57:18;9.43;;;1.08;;
55254;SDS011;41118;44.634;11.182;2023-12-20T11:59:45;6.25;;;1.33;;
55254;SDS011;41118;44.634;11.182;2023-12-20T12:02:11;9.50;;;1.38;;
55254;SDS011;41118;44.634;11.182;2023-12-20T12:04:40;10.10;;;2.78;;
55254;SDS011;41118;44.634;11.182;2023-12-20T12:07:06;6.53;;;1.58;;
55254;SDS011;41118;44.634;11.182;2023-12-20T12:09:33;4.50;;;0.90;;
55254;SDS011;41118;44.634;11.182;2023-12-20T12:12:00;7.43;;;1.98;;
55254;SDS011;41118;44.634;11.182;2023-12-20T12:14:26;9.75;;;1.20;;
55254;SDS011;41118;44.634;11.182;2023-12-20T12:16:52;7.65;;;1.35;;
55254;SDS011;41118;44.634;11.182;2023-12-20T12:19:24;10.82;;;2.20;;
55254;SDS011;41118;44.634;11.182;2023-12-20T12:21:51;7.78;;;2.53;;
55254;SDS011;41118;44.634;11.182;2023-12-20T12:24:20;7.35;;;2.97;;
55254;SDS011;41118;44.634;11.182;2023-12-20T12:26:49;8.00;;;2.65;;
55254;SDS011;41118;44.634;11.182;2023-12-20T12:29:16;9.05;;;2.60;;
55254;SDS011;41118;44.634;11.182;2023-12-20T12:31:42;7.68;;;2.30;;
55254;SDS011;41118;44.634;11.182;2023-12-20T12:34:08;9.43;;;1.77;;
55254;SDS011;41118;44.634;11.182;2023-12-20T12:36:34;5.20;;;0.70;;
55254;SDS011;41118;44.634;11.182;2023-12-20T12:39:04;5.47;;;1.33;;
55254;SDS011;41118;44.634;11.182;2023-12-20T12:41:30;6.82;;;1.77;;
55254;SDS011;41118;44.634;11.182;2023-12-20T12:43:57;7.32;;;1.42;;
55254;SDS011;41118;44.634;11.182;2023-12-20T12:46:23;9.38;;;1.65;;
55254;SDS011;41118;44.634;11.182;2023-12-20T12:48:52;5.68;;;2.08;;
55254;SDS011;41118;44.634;11.182;2023-12-20T12:51:18;6.40;;;2.05;;
55254;SDS011;41118;44.634;11.182;2023-12-20T12:53:44;7.50;;;2.80;;
55254;SDS011;41118;44.634;11.182;2023-12-20T12:56:10;5.13;;;1.73;;
55254;SDS011;41118;44.634;11.182;2023-12-20T12:58:38;7.50;;;2.35;;
55254;SDS011;41118;44.634;11.182;2023-12-20T13:01:04;9.93;;;3.22;;
55254;SDS011;41118;44.634;11.182;2023-12-20T13:03:30;9.05;;;3.63;;
55254;SDS011;41118;44.634;11.182;2023-12-20T13:05:56;9.57;;;3.22;;
55254;SDS011;41118;44.634;11.182;2023-12-20T13:08:22;9.75;;;3.10;;
55254;SDS011;41118;44.634;11.182;2023-12-20T13:10:49;13.35;;;5.00;;
55254;SDS011;41118;44.634;11.182;2023-12-20T13:13:15;15.88;;;3.65;;
55254;SDS011;41118;44.634;11.182;2023-12-20T13:15:41;15.40;;;3.13;;
55254;SDS011;41118;44.634;11.182;2023-12-20T13:18:13;11.20;;;3.20;;
55254;SDS011;41118;44.634;11.182;2023-12-20T13:20:39;9.13;;;2.45;;
55254;SDS011;41118;44.634;11.182;2023-12-20T13:23:05;10.50;;;3.40;;
55254;SDS011;41118;44.634;11.182;2023-12-20T13:25:31;8.75;;;2.88;;
55254;SDS011;41118;44.634;11.182;2023-12-20T13:27:58;11.95;;;3.67;;
55254;SDS011;41118;44.634;11.182;2023-12-20T13:30:24;14.88;;;4.35;;
55254;SDS011;41118;44.634;11.182;2023-12-20T13:32:51;10.77;;;6.03;;
55254;SDS011;41118;44.634;11.182;2023-12-20T13:35:17;18.08;;;7.00;;
55254;SDS011;41118;44.634;11.182;2023-12-20T13:37:43;16.67;;;8.00;;
55254;SDS011;41118;44.634;11.182;2023-12-20T13:40:09;19.40;;;10.45;;
55254;SDS011;41118;44.634;11.182;2023-12-20T13:42:36;15.02;;;5.30;;
55254;SDS011;41118;44.634;11.182;2023-12-20T13:45:02;12.45;;;6.10;;
55254;SDS011;41118;44.634;11.182;2023-12-20T13:47:29;10.63;;;5.18;;
55254;SDS011;41118;44.634;11.182;2023-12-20T13:49:55;14.85;;;6.60;;
55254;SDS011;41118;44.634;11.182;2023-12-20T13:52:22;14.10;;;4.30;;
55254;SDS011;41118;44.634;11.182;2023-12-20T13:54:48;6.97;;;2.90;;
55254;SDS011;41118;44.634;11.182;2023-12-20T13:57:14;16.50;;;5.20;;
55254;SDS011;41118;44.634;11.182;2023-12-20T13:59:41;17.20;;;5.45;;
55254;SDS011;41118;44.634;11.182;2023-12-20T14:02:07;11.57;;;5.40;;
55254;SDS011;41118;44.634;11.182;2023-12-20T14:04:33;14.55;;;7.55;;
55254;SDS011;41118;44.634;11.182;2023-12-20T14:06:59;19.80;;;8.38;;
55254;SDS011;41118;44.634;11.182;2023-12-20T14:09:25;16.45;;;9.20;;
55254;SDS011;41118;44.634;11.182;2023-12-20T14:11:51;20.08;;;9.50;;
55254;SDS011;41118;44.634;11.182;2023-12-20T14:14:19;19.10;;;7.63;;
55254;SDS011;41118;44.634;11.182;2023-12-20T14:16:46;21.58;;;9.13;;
55254;SDS011;41118;44.634;11.182;2023-12-20T14:19:12;19.38;;;9.30;;
55254;SDS011;41118;44.634;11.182;2023-12-20T14:21:38;27.85;;;10.68;;
55254;SDS011;41118;44.634;11.182;2023-12-20T14:24:05;15.55;;;9.52;;
55254;SDS011;41118;44.634;11.182;2023-12-20T14:26:31;15.40;;;8.13;;
55254;SDS011;41118;44.634;11.182;2023-12-20T14:28:57;16.05;;;7.25;;
55254;SDS011;41118;44.634;11.182;2023-12-20T14:31:23;17.58;;;7.70;;
55254;SDS011;41118;44.634;11.182;2023-12-20T14:33:50;16.63;;;9.40;;
55254;SDS011;41118;44.634;11.182;2023-12-20T14:36:18;27.10;;;11.63;;